createdAt,value
2023-03-11T00:00:16.264Z,984.88
2023-03-11T00:01:16.597Z,984.95
2023-03-11T00:02:16.942Z,985.01
2023-03-11T00:03:17.403Z,985.02
2023-03-11T00:04:17.490Z,985.02
2023-03-11T00:05:17.771Z,985.05
2023-03-11T00:06:18.086Z,985.13
2023-03-11T00:07:18.418Z,985.08
2023-03-11T00:08:18.707Z,985.05
2023-03-11T00:09:19.007Z,985.05
2023-03-11T00:10:19.239Z,985.08
2023-03-11T00:11:19.508Z,985.09
2023-03-11T00:12:19.769Z,985.10
2023-03-11T00:13:20.052Z,985.07
2023-03-11T00:14:20.300Z,985.13
2023-03-11T00:15:20.570Z,985.14
2023-03-11T00:16:20.860Z,985.11
2023-03-11T00:17:21.125Z,985.12
2023-03-11T00:18:21.393Z,985.22
2023-03-11T00:19:21.895Z,985.20
2023-03-11T00:20:23.262Z,985.25
2023-03-11T00:21:22.516Z,985.29
2023-03-11T00:22:22.753Z,985.35
2023-03-11T00:23:23.113Z,985.33
2023-03-11T00:24:23.336Z,985.41
2023-03-11T00:25:23.624Z,985.30
2023-03-11T00:26:23.893Z,985.45
2023-03-11T00:27:24.203Z,985.46
2023-03-11T00:28:24.579Z,985.42
2023-03-11T00:29:24.764Z,985.41
2023-03-11T00:30:25.061Z,985.45
2023-03-11T00:31:25.363Z,985.46
2023-03-11T00:32:25.746Z,985.42
2023-03-11T00:33:26.037Z,985.40
2023-03-11T00:34:26.439Z,985.53
2023-03-11T00:35:26.586Z,985.51
2023-03-11T00:36:26.893Z,985.52
2023-03-11T00:37:27.191Z,985.54
2023-03-11T00:38:27.530Z,985.51
2023-03-11T00:39:27.761Z,985.51
2023-03-11T00:40:28.049Z,985.56
2023-03-11T00:41:28.244Z,985.57
2023-03-11T00:42:28.640Z,985.59
2023-03-11T00:43:28.876Z,985.65
2023-03-11T00:44:29.022Z,985.66
2023-03-11T00:45:29.507Z,985.62
2023-03-11T00:46:29.834Z,985.70
2023-03-11T00:47:29.927Z,985.69
2023-03-11T00:48:30.243Z,985.73
2023-03-11T00:49:30.547Z,985.73
2023-03-11T00:50:32.595Z,985.80
2023-03-11T00:51:33.855Z,985.83
2023-03-11T00:52:31.363Z,985.89
2023-03-11T00:53:31.671Z,985.90
2023-03-11T00:54:32.015Z,985.92
2023-03-11T00:55:32.252Z,985.95
2023-03-11T00:56:32.631Z,985.93
2023-03-11T00:57:32.773Z,985.95
2023-03-11T00:58:33.078Z,985.99
2023-03-11T00:59:33.394Z,986.01
2023-03-11T01:00:33.697Z,985.99
2023-03-11T01:01:34.040Z,985.97
2023-03-11T01:02:34.322Z,986.09
2023-03-11T01:03:34.578Z,986.03
2023-03-11T01:04:34.965Z,986.05
2023-03-11T01:05:35.224Z,986.13
2023-03-11T01:06:44.876Z,986.11
2023-03-11T01:07:36.732Z,986.18
2023-03-11T01:08:35.942Z,986.19
2023-03-11T01:09:36.198Z,986.30
2023-03-11T01:10:36.477Z,986.25
2023-03-11T01:11:36.743Z,986.27
2023-03-11T01:12:37.027Z,986.23
2023-03-11T01:13:37.325Z,986.28
2023-03-11T01:14:37.755Z,986.32
2023-03-11T01:15:38.202Z,986.29
2023-03-11T01:16:38.380Z,986.34
2023-03-11T01:17:38.525Z,986.36
2023-03-11T01:18:38.820Z,986.35
2023-03-11T01:19:39.096Z,986.39
2023-03-11T01:20:39.375Z,986.42
2023-03-11T01:21:39.646Z,986.48
2023-03-11T01:22:39.947Z,986.46
2023-03-11T01:23:40.245Z,986.53
2023-03-11T01:24:40.716Z,986.54
2023-03-11T01:25:40.789Z,986.54
2023-03-11T01:26:41.044Z,986.63
2023-03-11T01:27:41.295Z,986.67
2023-03-11T01:28:41.554Z,986.64
2023-03-11T01:29:41.828Z,986.67
2023-03-11T01:30:42.118Z,986.75
2023-03-11T01:31:42.413Z,986.73
2023-03-11T01:32:42.708Z,986.76
2023-03-11T01:33:42.966Z,986.75
2023-03-11T01:34:43.246Z,986.82
2023-03-11T01:35:43.692Z,986.82
2023-03-11T01:36:43.913Z,986.80
2023-03-11T01:37:44.570Z,986.82
2023-03-11T01:38:44.495Z,986.87
2023-03-11T01:39:48.893Z,986.91
2023-03-11T01:40:45.753Z,986.91
2023-03-11T01:41:45.368Z,986.88
2023-03-11T01:42:45.988Z,986.93
2023-03-11T01:43:45.999Z,986.96
2023-03-11T01:44:46.497Z,986.97
2023-03-11T01:45:46.477Z,987.08
2023-03-11T01:46:46.766Z,987.07
2023-03-11T01:47:47.227Z,987.14
2023-03-11T01:48:47.471Z,987.06
2023-03-11T01:49:47.834Z,987.14
2023-03-11T01:50:48.184Z,987.06
2023-03-11T01:51:48.404Z,987.10
2023-03-11T01:52:48.717Z,987.18
2023-03-11T01:53:49.043Z,987.17
2023-03-11T01:54:51.795Z,987.26
2023-03-11T01:55:49.598Z,987.31
2023-03-11T01:56:49.751Z,987.17
2023-03-11T01:57:50.062Z,987.31
2023-03-11T01:58:50.374Z,987.29
2023-03-11T01:59:50.615Z,987.29
2023-03-11T02:00:50.867Z,987.36
2023-03-11T02:01:51.173Z,987.29
2023-03-11T02:02:51.498Z,987.39
2023-03-11T02:03:51.717Z,987.43
2023-03-11T02:04:51.979Z,987.38
2023-03-11T02:05:52.222Z,987.44
2023-03-11T02:06:54.132Z,987.54
2023-03-11T02:07:52.740Z,987.51
2023-03-11T02:08:52.982Z,987.52
2023-03-11T02:09:53.234Z,987.61
2023-03-11T02:10:53.470Z,987.57
2023-03-11T02:11:53.745Z,987.68
2023-03-11T02:12:53.970Z,987.58
2023-03-11T02:13:54.220Z,987.59
2023-03-11T02:14:54.459Z,987.75
2023-03-11T02:15:54.737Z,987.64
2023-03-11T02:16:54.940Z,987.64
2023-03-11T02:17:55.297Z,987.67
2023-03-11T02:18:55.502Z,987.67
2023-03-11T02:19:55.866Z,987.70
2023-03-11T02:20:56.063Z,987.75
2023-03-11T02:21:56.375Z,987.73
2023-03-11T02:22:56.703Z,987.75
2023-03-11T02:23:57.034Z,987.81
2023-03-11T02:24:57.309Z,987.80
2023-03-11T02:25:57.528Z,987.81
2023-03-11T02:26:57.750Z,987.90
2023-03-11T02:27:58.047Z,987.89
2023-03-11T02:28:58.396Z,988.06
2023-03-11T02:29:58.654Z,987.84
2023-03-11T02:30:58.905Z,988.03
2023-03-11T02:31:59.126Z,987.98
2023-03-11T02:32:59.379Z,988.01
2023-03-11T02:33:59.602Z,988.11
2023-03-11T02:34:59.976Z,988.09
2023-03-11T02:36:00.247Z,988.08
2023-03-11T02:37:00.508Z,988.09
2023-03-11T02:38:00.782Z,988.11
2023-03-11T02:39:01.006Z,988.20
2023-03-11T02:40:01.252Z,988.18
2023-03-11T02:41:01.469Z,988.14
2023-03-11T02:42:01.901Z,988.26
2023-03-11T02:43:01.964Z,988.22
2023-03-11T02:44:02.310Z,988.31
2023-03-11T02:45:02.546Z,988.35
2023-03-11T02:46:02.815Z,988.41
2023-03-11T02:47:03.128Z,988.47
2023-03-11T02:48:03.335Z,988.39
2023-03-11T02:49:03.690Z,988.49
2023-03-11T02:50:03.966Z,988.56
2023-03-11T02:51:04.210Z,988.56
2023-03-11T02:52:04.433Z,988.49
2023-03-11T02:53:04.648Z,988.60
2023-03-11T02:54:04.994Z,988.63
2023-03-11T02:55:05.358Z,988.63
2023-03-11T02:56:05.594Z,988.71
2023-03-11T02:57:05.899Z,988.73
2023-03-11T02:58:06.264Z,988.84
2023-03-11T02:59:06.482Z,988.75
2023-03-11T03:00:06.861Z,988.98
2023-03-11T03:01:07.154Z,988.79
2023-03-11T03:02:07.341Z,988.87
2023-03-11T03:03:07.690Z,988.98
2023-03-11T03:04:08.125Z,989.00
2023-03-11T03:05:08.361Z,989.02
2023-03-11T03:06:08.617Z,989.17
2023-03-11T03:07:08.821Z,989.03
2023-03-11T03:08:09.133Z,989.16
2023-03-11T03:09:09.481Z,989.23
2023-03-11T03:10:09.854Z,989.25
2023-03-11T03:11:10.065Z,989.33
2023-03-11T03:12:10.434Z,989.28
2023-03-11T03:13:10.675Z,989.35
2023-03-11T03:14:10.896Z,989.43
2023-03-11T03:15:11.133Z,989.46
2023-03-11T03:16:11.419Z,989.47
2023-03-11T03:17:11.776Z,989.45
2023-03-11T03:18:11.934Z,989.50
2023-03-11T03:19:12.146Z,989.57
2023-03-11T03:20:12.399Z,989.60
2023-03-11T03:21:22.347Z,989.66
2023-03-11T03:22:12.930Z,989.68
2023-03-11T03:23:13.287Z,989.63
2023-03-11T03:24:13.510Z,989.70
2023-03-11T03:25:13.769Z,989.79
2023-03-11T03:26:13.988Z,989.69
2023-03-11T03:27:14.356Z,989.92
2023-03-11T03:28:14.551Z,989.77
2023-03-11T03:29:14.928Z,989.94
2023-03-11T03:30:15.181Z,989.94
2023-03-11T03:31:15.473Z,989.90
2023-03-11T03:32:15.705Z,990.04
2023-03-11T03:33:15.911Z,990.07
2023-03-11T03:34:16.253Z,990.14
2023-03-11T03:35:16.613Z,990.11
2023-03-11T03:36:16.824Z,990.09
2023-03-11T03:37:17.032Z,990.20
2023-03-11T03:38:17.417Z,990.20
2023-03-11T03:39:17.603Z,990.35
2023-03-11T03:40:17.963Z,990.28
2023-03-11T03:41:18.173Z,990.33
2023-03-11T03:42:18.506Z,990.41
2023-03-11T03:43:18.772Z,990.37
2023-03-11T03:44:18.983Z,990.48
2023-03-11T03:45:19.378Z,990.46
2023-03-11T03:46:19.647Z,990.46
2023-03-11T03:47:19.843Z,990.49
2023-03-11T03:48:20.291Z,990.52
2023-03-11T03:49:20.540Z,990.50
2023-03-11T03:50:20.828Z,990.70
2023-03-11T03:51:21.047Z,990.74
2023-03-11T03:52:21.255Z,990.60
2023-03-11T03:53:21.593Z,990.65
2023-03-11T03:54:21.843Z,990.89
2023-03-11T03:55:22.185Z,990.97
2023-03-11T03:56:22.558Z,990.89
2023-03-11T03:57:22.786Z,990.92
2023-03-11T03:58:23.018Z,990.94
2023-03-11T03:59:23.239Z,990.93
2023-03-11T04:00:23.611Z,990.95
2023-03-11T04:01:23.860Z,990.98
2023-03-11T04:02:24.369Z,991.05
2023-03-11T04:03:24.502Z,990.98
2023-03-11T04:04:24.731Z,991.06
2023-03-11T04:05:25.097Z,991.18
2023-03-11T04:06:25.322Z,991.16
2023-03-11T04:07:25.560Z,991.21
2023-03-11T04:08:25.774Z,991.17
2023-03-11T04:09:26.111Z,991.21
2023-03-11T04:10:26.501Z,991.20
2023-03-11T04:11:26.729Z,991.24
2023-03-11T04:12:26.942Z,991.30
2023-03-11T04:13:27.320Z,991.29
2023-03-11T04:14:27.533Z,991.29
2023-03-11T04:15:27.761Z,991.31
2023-03-11T04:16:28.149Z,991.40
2023-03-11T04:17:28.397Z,991.44
2023-03-11T04:18:28.740Z,991.46
2023-03-11T04:19:28.944Z,991.46
2023-03-11T04:20:29.309Z,991.49
2023-03-11T04:21:29.522Z,991.53
2023-03-11T04:22:29.860Z,991.54
2023-03-11T04:23:30.182Z,991.55
2023-03-11T04:24:30.523Z,991.70
2023-03-11T04:25:30.865Z,991.61
2023-03-11T04:26:31.204Z,991.59
2023-03-11T04:27:31.532Z,991.76
2023-03-11T04:28:31.868Z,991.86
2023-03-11T04:29:32.183Z,991.83
2023-03-11T04:30:32.620Z,991.84
2023-03-11T04:31:32.860Z,991.86
2023-03-11T04:32:33.069Z,991.92
2023-03-11T04:33:33.411Z,991.85
2023-03-11T04:34:33.750Z,991.98
2023-03-11T04:35:34.105Z,991.96
2023-03-11T04:36:34.308Z,992.05
2023-03-11T04:37:34.667Z,992.05
2023-03-11T04:38:34.889Z,992.13
2023-03-11T04:39:35.230Z,992.15
2023-03-11T04:40:35.483Z,992.13
2023-03-11T04:41:35.689Z,992.20
2023-03-11T04:42:36.031Z,992.23
2023-03-11T04:43:36.380Z,992.33
2023-03-11T04:44:36.587Z,992.26
2023-03-11T04:45:36.937Z,992.29
2023-03-11T04:46:37.308Z,992.23
2023-03-11T04:47:37.520Z,992.31
2023-03-11T04:48:37.859Z,992.36
2023-03-11T04:49:38.211Z,992.29
2023-03-11T04:50:38.523Z,992.46
2023-03-11T04:51:38.861Z,992.44
2023-03-11T04:52:39.209Z,992.42
2023-03-11T04:53:39.438Z,992.46
2023-03-11T04:54:39.771Z,992.46
2023-03-11T04:55:40.121Z,992.51
2023-03-11T04:56:40.337Z,992.46
2023-03-11T04:57:40.588Z,992.50
2023-03-11T04:58:40.819Z,992.52
2023-03-11T04:59:41.033Z,992.63
2023-03-11T05:00:41.368Z,992.62
2023-03-11T05:01:41.718Z,992.62
2023-03-11T05:02:42.019Z,992.68
2023-03-11T05:03:42.359Z,992.82
2023-03-11T05:04:42.727Z,992.84
2023-03-11T05:05:42.999Z,992.80
2023-03-11T05:06:43.234Z,992.87
2023-03-11T05:07:43.423Z,992.96
2023-03-11T05:08:43.773Z,992.91
2023-03-11T05:09:43.986Z,993.03
2023-03-11T05:10:44.322Z,992.99
2023-03-11T05:11:44.565Z,992.99
2023-03-11T05:12:44.793Z,993.05
2023-03-11T05:13:46.482Z,993.03
2023-03-11T05:14:45.272Z,993.11
2023-03-11T05:15:45.573Z,993.04
2023-03-11T05:16:45.831Z,993.15
2023-03-11T05:17:46.073Z,993.09
2023-03-11T05:18:46.292Z,993.24
2023-03-11T05:19:46.555Z,993.28
2023-03-11T05:20:46.787Z,993.27
2023-03-11T05:21:47.141Z,993.29
2023-03-11T05:22:48.311Z,993.34
2023-03-11T05:23:47.610Z,993.36
2023-03-11T05:24:47.843Z,993.39
2023-03-11T05:25:48.102Z,993.45
2023-03-11T05:26:48.690Z,993.40
2023-03-11T05:27:48.586Z,993.53
2023-03-11T05:28:48.833Z,993.57
2023-03-11T05:29:49.191Z,993.51
2023-03-11T05:30:49.359Z,993.59
2023-03-11T05:31:49.645Z,993.61
2023-03-11T05:32:49.928Z,993.64
2023-03-11T05:33:50.194Z,993.72
2023-03-11T05:34:50.434Z,993.74
2023-03-11T05:35:50.724Z,993.79
2023-03-11T05:36:50.950Z,993.82
2023-03-11T05:37:51.204Z,993.80
2023-03-11T05:38:51.565Z,993.90
2023-03-11T05:39:51.902Z,993.89
2023-03-11T05:40:52.158Z,993.89
2023-03-11T05:41:52.424Z,993.97
2023-03-11T05:42:52.856Z,993.98
2023-03-11T05:43:53.037Z,993.95
2023-03-11T05:44:53.311Z,993.97
2023-03-11T05:45:53.577Z,994.12
2023-03-11T05:46:53.906Z,994.06
2023-03-11T05:47:54.082Z,994.05
2023-03-11T05:48:54.321Z,994.11
2023-03-11T05:49:54.653Z,994.08
2023-03-11T05:50:54.861Z,994.01
2023-03-11T05:51:58.400Z,994.09
2023-03-11T05:52:55.522Z,994.16
2023-03-11T05:53:55.845Z,994.23
2023-03-11T05:54:56.118Z,994.24
2023-03-11T05:55:56.402Z,994.27
2023-03-11T05:56:56.998Z,994.31
2023-03-11T05:57:57.007Z,994.26
2023-03-11T05:58:57.305Z,994.28
2023-03-11T05:59:57.733Z,994.38
2023-03-11T06:00:57.841Z,994.33
2023-03-11T06:01:58.200Z,994.39
2023-03-11T06:02:58.344Z,994.48
2023-03-11T06:03:58.768Z,994.42
2023-03-11T06:04:59.012Z,994.56
2023-03-11T06:05:59.233Z,994.54
2023-03-11T06:06:59.572Z,994.57
2023-03-11T06:07:59.752Z,994.63
2023-03-11T06:09:00.166Z,994.69
2023-03-11T06:10:00.390Z,994.72
2023-03-11T06:11:00.804Z,994.73
2023-03-11T06:12:00.932Z,994.75
2023-03-11T06:13:01.187Z,994.76
2023-03-11T06:14:06.587Z,994.77
2023-03-11T06:15:01.811Z,994.82
2023-03-11T06:16:02.319Z,994.70
2023-03-11T06:17:02.429Z,994.84
2023-03-11T06:18:02.778Z,994.89
2023-03-11T06:19:03.072Z,994.84
2023-03-11T06:20:03.414Z,994.83
2023-03-11T06:21:03.689Z,994.88
2023-03-11T06:22:03.943Z,994.88
2023-03-11T06:23:04.222Z,994.94
2023-03-11T06:24:04.494Z,994.94
2023-03-11T06:25:04.759Z,994.97
2023-03-11T06:26:05.070Z,995.00
2023-03-11T06:27:05.359Z,995.14
2023-03-11T06:28:05.662Z,995.13
2023-03-11T06:29:05.931Z,995.08
2023-03-11T06:30:06.229Z,995.07
2023-03-11T06:31:06.560Z,995.17
2023-03-11T06:32:06.850Z,995.18
2023-03-11T06:33:07.158Z,995.23
2023-03-11T06:34:07.423Z,995.24
2023-03-11T06:35:07.701Z,995.27
2023-03-11T06:36:08.047Z,995.22
2023-03-11T06:37:08.228Z,995.26
2023-03-11T06:38:08.574Z,995.30
2023-03-11T06:39:08.833Z,995.36
2023-03-11T06:40:09.088Z,995.35
2023-03-11T06:41:09.354Z,995.42
2023-03-11T06:42:09.613Z,995.35
2023-03-11T06:43:09.860Z,995.42
2023-03-11T06:44:10.120Z,995.48
2023-03-11T06:45:10.386Z,995.41
2023-03-11T06:46:10.729Z,995.45
2023-03-11T06:47:10.897Z,995.52
2023-03-11T06:48:11.184Z,995.51
2023-03-11T06:49:11.478Z,995.54
2023-03-11T06:50:11.758Z,995.56
2023-03-11T06:51:12.015Z,995.60
2023-03-11T06:52:12.300Z,995.75
2023-03-11T06:53:12.563Z,995.64
2023-03-11T06:54:12.833Z,995.67
2023-03-11T06:55:13.103Z,995.67
2023-03-11T06:56:13.385Z,995.77
2023-03-11T06:57:13.682Z,995.71
2023-03-11T06:58:14.044Z,995.77
2023-03-11T06:59:14.186Z,995.85
2023-03-11T07:00:14.449Z,995.82
2023-03-11T07:01:14.804Z,995.81
2023-03-11T07:02:14.963Z,995.86
2023-03-11T07:03:15.205Z,995.91
2023-03-11T07:04:15.489Z,995.93
2023-03-11T07:05:15.825Z,995.94
2023-03-11T07:06:16.079Z,995.99
2023-03-11T07:07:16.338Z,995.98
2023-03-11T07:08:16.589Z,996.07
2023-03-11T07:09:16.910Z,996.03
2023-03-11T07:10:17.163Z,996.05
2023-03-11T07:11:17.772Z,996.11
2023-03-11T07:12:17.737Z,996.15
2023-03-11T07:13:18.057Z,996.11
2023-03-11T07:14:18.693Z,996.16
2023-03-11T07:15:18.879Z,996.17
2023-03-11T07:16:19.396Z,996.18
2023-03-11T07:17:19.152Z,996.19
2023-03-11T07:18:19.798Z,996.28
2023-03-11T07:19:20.465Z,996.22
2023-03-11T07:20:20.302Z,996.23
2023-03-11T07:21:20.255Z,996.18
2023-03-11T07:22:20.522Z,996.23
2023-03-11T07:23:20.787Z,996.33
2023-03-11T07:24:21.113Z,996.36
2023-03-11T07:25:21.360Z,996.40
2023-03-11T07:26:21.690Z,996.39
2023-03-11T07:27:21.938Z,996.43
2023-03-11T07:28:22.184Z,996.46
2023-03-11T07:29:22.463Z,996.42
2023-03-11T07:30:22.732Z,996.48
2023-03-11T07:31:23.059Z,996.48
2023-03-11T07:32:23.417Z,996.45
2023-03-11T07:33:23.572Z,996.57
2023-03-11T07:34:23.852Z,996.58
2023-03-11T07:35:24.112Z,996.61
2023-03-11T07:36:24.409Z,996.64
2023-03-11T07:37:24.584Z,996.63
2023-03-11T07:38:25.497Z,996.74
2023-03-11T07:39:25.136Z,996.74
2023-03-11T07:40:25.423Z,996.80
2023-03-11T07:41:25.711Z,996.84
2023-03-11T07:42:25.984Z,996.81
2023-03-11T07:43:26.232Z,996.84
2023-03-11T07:44:26.497Z,996.80
2023-03-11T07:45:26.766Z,996.84
2023-03-11T07:46:27.103Z,996.82
2023-03-11T07:47:27.274Z,996.86
2023-03-11T07:48:27.532Z,996.90
2023-03-11T07:49:27.845Z,996.85
2023-03-11T07:50:28.134Z,996.87
2023-03-11T07:51:28.516Z,996.91
2023-03-11T07:52:28.881Z,996.94
2023-03-11T07:53:29.089Z,996.96
2023-03-11T07:54:29.350Z,997.03
2023-03-11T07:55:29.622Z,997.08
2023-03-11T07:56:29.883Z,997.04
2023-03-11T07:57:30.122Z,997.10
2023-03-11T07:58:30.413Z,997.11
2023-03-11T07:59:30.672Z,997.05
2023-03-11T08:00:30.956Z,997.11
2023-03-11T08:01:31.236Z,997.10
2023-03-11T08:02:31.600Z,997.25
2023-03-11T08:03:31.854Z,997.26
2023-03-11T08:04:32.114Z,997.25
2023-03-11T08:05:32.422Z,997.28
2023-03-11T08:06:32.712Z,997.36
2023-03-11T08:07:32.974Z,997.33
2023-03-11T08:08:33.221Z,997.40
2023-03-11T08:09:33.489Z,997.30
2023-03-11T08:10:33.746Z,997.45
2023-03-11T08:11:34.010Z,997.41
2023-03-11T08:12:34.285Z,997.50
2023-03-11T08:13:34.570Z,997.55
2023-03-11T08:14:34.816Z,997.46
2023-03-11T08:15:35.081Z,997.59
2023-03-11T08:16:35.384Z,997.65
2023-03-11T08:17:35.577Z,997.70
2023-03-11T08:18:35.859Z,997.70
2023-03-11T08:19:36.436Z,997.66
2023-03-11T08:20:36.369Z,997.72
2023-03-11T08:21:36.668Z,997.67
2023-03-11T08:22:39.519Z,997.70
2023-03-11T08:23:38.168Z,997.78
2023-03-11T08:24:37.574Z,997.81
2023-03-11T08:25:37.776Z,997.76
2023-03-11T08:26:38.018Z,997.77
2023-03-11T08:27:38.268Z,997.69
2023-03-11T08:28:38.507Z,997.89
2023-03-11T08:29:38.742Z,997.96
2023-03-11T08:30:41.043Z,997.80
2023-03-11T08:31:39.410Z,997.74
2023-03-11T08:32:39.556Z,997.73
2023-03-11T08:33:39.809Z,997.87
2023-03-11T08:34:40.163Z,997.92
2023-03-11T08:35:40.375Z,997.95
2023-03-11T08:36:40.620Z,997.94
2023-03-11T08:37:40.869Z,998.07
2023-03-11T08:38:41.233Z,998.09
2023-03-11T08:39:41.358Z,998.08
2023-03-11T08:40:41.642Z,998.05
2023-03-11T08:41:41.878Z,998.06
2023-03-11T08:42:42.143Z,998.17
2023-03-11T08:43:42.419Z,998.20
2023-03-11T08:44:42.660Z,998.20
2023-03-11T08:45:42.882Z,998.13
2023-03-11T08:46:43.292Z,998.19
2023-03-11T08:47:43.486Z,998.23
2023-03-11T08:48:43.733Z,998.23
2023-03-11T08:49:43.992Z,998.23
2023-03-11T08:50:53.246Z,998.33
2023-03-11T08:51:45.471Z,998.20
2023-03-11T08:52:44.780Z,998.27
2023-03-11T08:53:45.050Z,998.36
2023-03-11T08:54:45.304Z,998.45
2023-03-11T08:55:45.562Z,998.42
2023-03-11T08:56:45.812Z,998.45
2023-03-11T08:57:46.067Z,998.41
2023-03-11T08:58:46.354Z,998.49
2023-03-11T08:59:46.612Z,998.47
2023-03-11T09:00:46.857Z,998.52
2023-03-11T09:01:47.111Z,998.49
2023-03-11T09:02:47.355Z,998.54
2023-03-11T09:03:47.661Z,998.51
2023-03-11T09:04:47.923Z,998.49
2023-03-11T09:05:48.248Z,998.62
2023-03-11T09:06:48.401Z,998.60
2023-03-11T09:07:48.633Z,998.61
2023-03-11T09:08:48.905Z,998.56
2023-03-11T09:09:49.172Z,998.71
2023-03-11T09:10:49.432Z,998.80
2023-03-11T09:11:49.691Z,998.78
2023-03-11T09:12:49.960Z,998.80
2023-03-11T09:13:50.196Z,998.80
2023-03-11T09:14:50.452Z,998.79
2023-03-11T09:15:50.785Z,998.73
2023-03-11T09:16:51.022Z,998.89
2023-03-11T09:17:51.298Z,998.94
2023-03-11T09:18:51.561Z,998.85
2023-03-11T09:19:51.815Z,999.01
2023-03-11T09:20:52.056Z,998.91
2023-03-11T09:21:52.325Z,998.88
2023-03-11T09:22:52.565Z,998.97
2023-03-11T09:23:52.821Z,999.06
2023-03-11T09:24:53.074Z,999.03
2023-03-11T09:25:53.347Z,999.07
2023-03-11T09:26:53.625Z,999.12
2023-03-11T09:27:53.900Z,999.08
2023-03-11T09:28:54.166Z,999.12
2023-03-11T09:29:54.410Z,999.14
2023-03-11T09:30:54.742Z,999.17
2023-03-11T09:31:55.063Z,999.16
2023-03-11T09:32:55.264Z,999.26
2023-03-11T09:33:55.510Z,999.33
2023-03-11T09:34:55.737Z,999.22
2023-03-11T09:35:56.061Z,999.28
2023-03-11T09:36:56.287Z,999.26
2023-03-11T09:37:56.526Z,999.31
2023-03-11T09:38:56.788Z,999.31
2023-03-11T09:39:57.047Z,999.32
2023-03-11T09:40:57.329Z,999.38
2023-03-11T09:41:59.015Z,999.36
2023-03-11T09:42:57.936Z,999.32
2023-03-11T09:43:58.188Z,999.32
2023-03-11T09:44:58.492Z,999.28
2023-03-11T09:45:58.749Z,999.37
2023-03-11T09:46:59.030Z,999.28
2023-03-11T09:47:59.381Z,999.44
2023-03-11T09:48:59.663Z,999.43
2023-03-11T09:49:59.921Z,999.47
2023-03-11T09:51:00.183Z,999.37
2023-03-11T09:52:00.459Z,999.46
2023-03-11T09:53:00.699Z,999.46
2023-03-11T09:54:00.943Z,999.54
2023-03-11T09:55:01.251Z,999.62
2023-03-11T09:56:01.607Z,999.63
2023-03-11T09:57:01.842Z,999.63
2023-03-11T09:58:02.100Z,999.63
2023-03-11T09:59:02.351Z,999.60
2023-03-11T10:00:02.649Z,999.71
2023-03-11T10:01:02.927Z,999.69
2023-03-11T10:02:03.199Z,999.67
2023-03-11T10:03:03.527Z,999.64
2023-03-11T10:04:03.780Z,999.64
2023-03-11T10:05:04.112Z,999.77
2023-03-11T10:06:04.413Z,999.73
2023-03-11T10:07:04.670Z,999.75
2023-03-11T10:08:04.950Z,999.81
2023-03-11T10:09:05.201Z,999.76
2023-03-11T10:10:05.477Z,999.79
2023-03-11T10:11:05.714Z,999.77
2023-03-11T10:12:05.982Z,999.91
2023-03-11T10:13:06.295Z,999.80
2023-03-11T10:14:06.530Z,999.80
2023-03-11T10:15:06.795Z,999.80
2023-03-11T10:16:07.085Z,999.88
2023-03-11T10:17:07.378Z,999.87
2023-03-11T10:18:07.623Z,999.92
2023-03-11T10:19:07.889Z,999.84
2023-03-11T10:20:08.158Z,999.90
2023-03-11T10:21:08.427Z,1000.09
2023-03-11T10:22:08.675Z,1000.05
2023-03-11T10:23:08.934Z,999.94
2023-03-11T10:24:09.190Z,1000.15
2023-03-11T10:25:10.217Z,1000.09
2023-03-11T10:26:10.750Z,999.98
2023-03-11T10:27:10.810Z,1000.08
2023-03-11T10:28:10.396Z,1000.06
2023-03-11T10:29:10.654Z,1000.06
2023-03-11T10:30:10.917Z,1000.10
2023-03-11T10:31:11.175Z,1000.08
2023-03-11T10:32:11.435Z,1000.07
2023-03-11T10:33:11.691Z,1000.13
2023-03-11T10:34:11.965Z,1000.22
2023-03-11T10:35:12.224Z,1000.17
2023-03-11T10:36:12.581Z,1000.10
2023-03-11T10:37:12.718Z,1000.24
2023-03-11T10:38:12.993Z,1000.18
2023-03-11T10:39:13.248Z,1000.28
2023-03-11T10:40:13.506Z,1000.16
2023-03-11T10:41:13.761Z,1000.18
2023-03-11T10:42:14.029Z,1000.19
2023-03-11T10:43:14.265Z,1000.26
2023-03-11T10:44:14.549Z,1000.28
2023-03-11T10:45:14.851Z,1000.24
2023-03-11T10:46:15.241Z,1000.22
2023-03-11T10:47:15.338Z,1000.24
2023-03-11T10:48:15.606Z,1000.27
2023-03-11T10:49:15.857Z,1000.36
2023-03-11T10:50:16.118Z,1000.28
2023-03-11T10:51:16.367Z,1000.32
2023-03-11T10:52:16.618Z,1000.24
2023-03-11T10:53:16.877Z,1000.27
2023-03-11T10:54:17.128Z,1000.32
2023-03-11T10:55:17.390Z,1000.46
2023-03-11T10:56:17.658Z,1000.26
2023-03-11T10:57:17.923Z,1000.32
2023-03-11T10:58:18.171Z,1000.22
2023-03-11T10:59:18.439Z,1000.42
2023-03-11T11:00:18.762Z,1000.36
2023-03-11T11:01:19.082Z,1000.39
2023-03-11T11:02:19.331Z,1000.36
2023-03-11T11:03:19.610Z,1000.35
2023-03-11T11:04:19.880Z,1000.37
2023-03-11T11:05:20.176Z,1000.44
2023-03-11T11:06:20.433Z,1000.43
2023-03-11T11:07:20.692Z,1000.41
2023-03-11T11:08:20.954Z,1000.44
2023-03-11T11:09:21.193Z,1000.46
2023-03-11T11:10:21.453Z,1000.48
2023-03-11T11:11:21.748Z,1000.53
2023-03-11T11:12:22.018Z,1000.44
2023-03-11T11:13:22.287Z,1000.44
2023-03-11T11:14:22.545Z,1000.37
2023-03-11T11:15:22.814Z,1000.47
2023-03-11T11:16:23.276Z,1000.51
2023-03-11T11:17:23.465Z,1000.55
2023-03-11T11:18:23.709Z,1000.56
2023-03-11T11:19:23.956Z,1000.64
2023-03-11T11:20:24.215Z,1000.60
2023-03-11T11:21:24.536Z,1000.52
2023-03-11T11:22:24.796Z,1000.43
2023-03-11T11:23:25.046Z,1000.43
2023-03-11T11:24:25.322Z,1000.55
2023-03-11T11:25:25.672Z,1000.57
2023-03-11T11:26:25.858Z,1000.52
2023-03-11T11:27:26.123Z,1000.58
2023-03-11T11:28:26.385Z,1000.62
2023-03-11T11:29:26.639Z,1000.58
2023-03-11T11:30:26.904Z,1000.61
2023-03-11T11:31:27.182Z,1000.62
2023-03-11T11:32:27.462Z,1000.63
2023-03-11T11:33:27.730Z,1000.59
2023-03-11T11:34:28.008Z,1000.60
2023-03-11T11:35:28.315Z,1000.67
2023-03-11T11:36:28.580Z,1000.57
2023-03-11T11:37:28.869Z,1000.61
2023-03-11T11:38:29.145Z,1000.58
2023-03-11T11:39:29.391Z,1000.63
2023-03-11T11:40:29.658Z,1000.64
2023-03-11T11:41:29.923Z,1000.58
2023-03-11T11:42:30.221Z,1000.58
2023-03-11T11:43:30.469Z,1000.59
2023-03-11T11:44:30.726Z,1000.63
2023-03-11T11:45:31.007Z,1000.59
2023-03-11T11:46:31.579Z,1000.58
2023-03-11T11:47:31.526Z,1000.59
2023-03-11T11:48:31.770Z,1000.62
2023-03-11T11:49:32.020Z,1000.60
2023-03-11T11:50:32.287Z,1000.58
2023-03-11T11:51:32.557Z,1000.63
2023-03-11T11:52:32.800Z,1000.60
2023-03-11T11:53:33.066Z,1000.63
2023-03-11T11:54:33.320Z,1000.65
2023-03-11T11:55:33.605Z,1000.68
2023-03-11T11:56:33.910Z,1000.62
2023-03-11T11:57:34.148Z,1000.64
2023-03-11T11:58:34.450Z,1000.58
2023-03-11T11:59:34.698Z,1000.62
2023-03-11T12:00:35.007Z,1000.58
2023-03-11T12:01:35.279Z,1000.62
2023-03-11T12:02:35.597Z,1000.61
2023-03-11T12:03:35.916Z,1000.68
2023-03-11T12:04:36.189Z,1000.70
2023-03-11T12:05:36.497Z,1000.65
2023-03-11T12:06:36.755Z,1000.76
2023-03-11T12:07:36.998Z,1000.67
2023-03-11T12:08:37.253Z,1000.68
2023-03-11T12:09:37.501Z,1000.67
2023-03-11T12:10:37.749Z,1000.76
2023-03-11T12:11:39.373Z,1000.72
2023-03-11T12:12:38.324Z,1000.74
2023-03-11T12:13:38.576Z,1000.78
2023-03-11T12:14:38.821Z,1000.77
2023-03-11T12:15:39.114Z,1000.74
2023-03-11T12:16:39.381Z,1000.73
2023-03-11T12:17:39.623Z,1000.82
2023-03-11T12:18:39.882Z,1000.74
2023-03-11T12:19:40.126Z,1000.74
2023-03-11T12:20:40.512Z,1000.71
2023-03-11T12:21:40.630Z,1000.71
2023-03-11T12:22:40.895Z,1000.76
2023-03-11T12:23:41.152Z,1000.70
2023-03-11T12:24:41.414Z,1000.75
2023-03-11T12:25:42.428Z,1000.72
2023-03-11T12:26:42.633Z,1000.77
2023-03-11T12:27:42.236Z,1000.80